Hartfield, United Kingdom
Current Conditions -  °F | °C
As of 12:20 PM on Friday 28 Nov 2014 (Local Time) from EGKK Reporting Station
Broken Clouds Broken Clouds  
Wind Chill: 52°   Ceiling: 800
Heat Index: 52°   Visibility: 4mi
Dew Point: 50°   Wind: 12mph
Humidity: 94%   Direction: 70°ENE
Pressure: 29.59"   Gusts: NA
Location:  51.1°N, 0.11°E
Report Text: EGKK 281220Z 07010KT 7000 BKN008 11/10 Q1002
Loading
Personal Weather Stations






























Interactive Weather Map New forecast layout! Learn more

10-Day Weather Forecast

Advertisements
Track Severe Weather on mobile